Terminal Aerodrome Forecast
Issued by NWS Northern Indiana

Home | Current Version | Previous Version | Graphics & Text | Print | Product List | Glossary On
Versions: 1 2 3 4 5 6 7 8 9 10 11 12 13
851
FTUS43 KIWX 062339
TAFFWA
TAF
KFWA 062339Z 0700/0724 28012KT 6SM BR BKN015
     FM070500 26010KT P6SM SCT015 BKN150
     FM071400 25010KT P6SM SCT020 BKN100=

USA.gov is the U.S. government's official web portal to all federal, state and local government web resources and services.